Time;durP1;ratioP1;P1;durP2;ratioP2;P2;SDS_P1;SDS_P2;PMS_P1;PMS_P2;Temp;Humidity;BMP_temperature;BMP_pressure;BME280_temperature;BME280_humidity;BME280_pressure;Samples;Min_cycle;Max_cycle;Signal;HPM_P1;HPM_P2
2023/02/17 00:01:48;;;;;;;13.35;10.15;;;;;;;;;;4985985;28;20085;-67
2023/02/17 00:04:13;;;;;;;13.73;10.60;;;;;;;;;;4970029;28;20049;-69
2023/02/17 00:06:39;;;;;;;15.03;11.10;;;;;;;;;;4987619;28;20658;-69
2023/02/17 00:09:04;;;;;;;13.63;10.43;;;;;;;;;;4983954;28;20297;-68
2023/02/17 00:11:29;;;;;;;13.50;10.52;;;;;;;;;;4972933;28;20063;-69
2023/02/17 00:13:55;;;;;;;13.15;10.73;;;;;;;;;;4963432;28;20499;-69
2023/02/17 00:16:21;;;;;;;14.63;11.10;;;;;;;;;;4954685;28;20086;-67
2023/02/17 00:18:46;;;;;;;13.32;10.57;;;;;;;;;;4968999;28;20291;-67
2023/02/17 00:21:13;;;;;;;16.80;11.00;;;;;;;;;;4955463;28;20070;-68
2023/02/17 00:23:38;;;;;;;12.90;10.32;;;;;;;;;;4955469;28;20054;-65
2023/02/17 00:26:04;;;;;;;14.02;10.45;;;;;;;;;;4971348;28;20039;-68
2023/02/17 00:28:29;;;;;;;14.07;10.95;;;;;;;;;;4974614;28;20528;-68
2023/02/17 00:30:54;;;;;;;12.77;9.90;;;;;;;;;;4952209;28;20055;-70
2023/02/17 00:33:20;;;;;;;13.90;10.90;;;;;;;;;;4960777;28;20845;-65
2023/02/17 00:35:45;;;;;;;12.23;9.68;;;;;;;;;;4953272;28;20532;-66
2023/02/17 00:38:10;;;;;;;14.48;10.40;;;;;;;;;;4946448;28;20106;-65
2023/02/17 00:40:35;;;;;;;12.93;10.20;;;;;;;;;;4968781;28;20042;-68
2023/02/17 00:43:01;;;;;;;13.60;10.33;;;;;;;;;;4946708;28;20790;-66
2023/02/17 00:45:26;;;;;;;13.60;10.45;;;;;;;;;;4955271;28;20291;-67
2023/02/17 00:47:51;;;;;;;12.63;9.77;;;;;;;;;;4954303;28;20404;-68
2023/02/17 00:50:16;;;;;;;14.30;10.70;;;;;;;;;;4956345;28;20281;-68
2023/02/17 00:52:42;;;;;;;13.10;10.20;;;;;;;;;;4967751;28;20383;-69
2023/02/17 00:55:07;;;;;;;13.85;10.70;;;;;;;;;;4953922;28;20279;-66
2023/02/17 00:57:32;;;;;;;14.07;10.13;;;;;;;;;;4969710;28;20051;-67
2023/02/17 00:59:57;;;;;;;13.55;10.25;;;;;;;;;;4952488;28;20282;-68
2023/02/17 01:02:23;;;;;;;13.07;9.95;;;;;;;;;;4969846;28;20039;-65
2023/02/17 01:04:48;;;;;;;12.97;10.13;;;;;;;;;;4955397;28;20453;-65
2023/02/17 01:07:13;;;;;;;13.10;10.00;;;;;;;;;;4969711;28;20433;-72
2023/02/17 01:09:38;;;;;;;12.70;9.87;;;;;;;;;;4977402;28;20366;-69
2023/02/17 01:12:04;;;;;;;13.83;10.23;;;;;;;;;;4988560;28;20294;-66
2023/02/17 01:14:29;;;;;;;15.52;10.40;;;;;;;;;;4971739;28;20365;-68
2023/02/17 01:16:54;;;;;;;13.47;9.40;;;;;;;;;;4988188;28;20475;-69
2023/02/17 01:19:19;;;;;;;13.20;9.67;;;;;;;;;;4987157;28;20671;-68
2023/02/17 01:21:45;;;;;;;11.63;9.27;;;;;;;;;;4989610;28;20290;-67
2023/02/17 01:24:10;;;;;;;12.98;9.82;;;;;;;;;;4973514;28;20282;-65
2023/02/17 01:26:36;;;;;;;12.82;10.00;;;;;;;;;;4984388;28;20070;-68
2023/02/17 01:29:01;;;;;;;13.68;10.38;;;;;;;;;;4966889;28;20509;-65
2023/02/17 01:31:26;;;;;;;14.07;10.38;;;;;;;;;;4972042;28;20118;-69
2023/02/17 01:33:55;;;;;;;12.48;9.77;;;;;;;;;;4971556;28;20051;-67
2023/02/17 01:36:20;;;;;;;12.98;9.98;;;;;;;;;;4991233;28;20404;-69
2023/02/17 01:38:46;;;;;;;12.87;9.97;;;;;;;;;;4971411;28;20041;-69
2023/02/17 01:41:11;;;;;;;13.90;9.85;;;;;;;;;;4985058;28;20341;-65
2023/02/17 01:43:36;;;;;;;12.40;10.10;;;;;;;;;;4985744;28;20102;-67
2023/02/17 01:46:02;;;;;;;13.70;10.80;;;;;;;;;;4971705;28;20043;-65
2023/02/17 01:48:35;;;;;;;14.40;10.00;;;;;;;;;;4972474;28;20305;-66
2023/02/17 01:51:03;;;;;;;12.07;9.73;;;;;;;;;;4969609;28;20062;-63
2023/02/17 01:53:36;;;;;;;12.82;10.02;;;;;;;;;;4971263;28;20031;-66
2023/02/17 01:56:01;;;;;;;12.35;9.80;;;;;;;;;;4984904;28;20038;-67
2023/02/17 01:58:26;;;;;;;12.73;10.48;;;;;;;;;;4985687;28;20093;-69
2023/02/17 02:00:52;;;;;;;13.17;9.30;;;;;;;;;;4968162;28;20057;-66
2023/02/17 02:03:17;;;;;;;13.73;9.63;;;;;;;;;;4986037;28;20261;-67
2023/02/17 02:05:42;;;;;;;13.30;9.90;;;;;;;;;;4972767;28;20309;-69
2023/02/17 02:08:08;;;;;;;11.85;8.85;;;;;;;;;;4968235;28;20899;-69
2023/02/17 02:10:33;;;;;;;12.25;9.13;;;;;;;;;;4951181;28;20097;-67
2023/02/17 02:12:58;;;;;;;13.53;9.90;;;;;;;;;;4967284;28;20115;-65
2023/02/17 02:15:24;;;;;;;13.13;9.87;;;;;;;;;;4950860;28;20267;-68
2023/02/17 02:17:49;;;;;;;11.85;9.57;;;;;;;;;;4943497;28;20845;-68
2023/02/17 02:20:33;;;;;;;12.80;10.30;;;;;;;;;;4950910;28;20421;-66
2023/02/17 02:23:13;;;;;;;12.40;9.75;;;;;;;;;;4949953;28;20500;-65
2023/02/17 02:25:39;;;;;;;13.15;9.00;;;;;;;;;;4951515;28;20070;-68
2023/02/17 02:28:23;;;;;;;13.77;10.07;;;;;;;;;;4965605;28;20039;-66
2023/02/17 02:30:48;;;;;;;12.60;9.65;;;;;;;;;;4950687;28;20795;-67
2023/02/17 02:33:24;;;;;;;12.47;9.20;;;;;;;;;;4949664;28;20093;-68
2023/02/17 02:35:58;;;;;;;12.35;9.52;;;;;;;;;;4964990;28;20086;-69
2023/02/17 02:38:38;;;;;;;12.10;9.52;;;;;;;;;;4945053;28;20032;-67
2023/02/17 02:41:10;;;;;;;12.85;9.93;;;;;;;;;;4934389;28;20106;-67
2023/02/17 02:43:35;;;;;;;12.88;9.52;;;;;;;;;;4945503;28;20126;-69
2023/02/17 02:46:01;;;;;;;14.57;9.68;;;;;;;;;;4965977;28;20106;-69
2023/02/17 02:48:26;;;;;;;12.45;9.52;;;;;;;;;;4952819;28;20043;-66
2023/02/17 02:51:10;;;;;;;13.35;9.50;;;;;;;;;;4949403;28;20050;-64
2023/02/17 02:53:40;;;;;;;13.40;9.65;;;;;;;;;;4949971;28;20148;-69
2023/02/17 02:56:23;;;;;;;14.63;10.25;;;;;;;;;;4962377;28;20098;-70
2023/02/17 02:58:55;;;;;;;13.77;9.75;;;;;;;;;;4948945;28;20142;-67
2023/02/17 03:01:23;;;;;;;12.15;8.88;;;;;;;;;;4966040;28;20471;-69
2023/02/17 03:03:57;;;;;;;12.55;9.52;;;;;;;;;;4964846;28;20077;-66
2023/02/17 03:06:30;;;;;;;13.00;9.70;;;;;;;;;;4950364;28;20032;-68
2023/02/17 03:09:06;;;;;;;11.82;8.88;;;;;;;;;;4966533;28;20042;-69
2023/02/17 03:11:31;;;;;;;13.27;9.50;;;;;;;;;;4957523;28;20443;-68
2023/02/17 03:14:04;;;;;;;12.73;9.27;;;;;;;;;;4968893;28;20047;-68
2023/02/17 03:16:29;;;;;;;12.60;9.00;;;;;;;;;;4963671;28;20678;-68
2023/02/17 03:18:54;;;;;;;12.55;9.45;;;;;;;;;;4967596;28;20039;-69
2023/02/17 03:21:20;;;;;;;13.87;9.33;;;;;;;;;;4970019;28;20095;-65
2023/02/17 03:23:45;;;;;;;11.93;9.20;;;;;;;;;;4984117;28;20278;-69
2023/02/17 03:26:10;;;;;;;14.43;9.50;;;;;;;;;;4966754;28;20286;-69
2023/02/17 03:28:35;;;;;;;12.60;9.57;;;;;;;;;;4983118;28;20286;-68
2023/02/17 03:31:00;;;;;;;12.60;9.57;;;;;;;;;;4969114;28;20077;-69
2023/02/17 03:33:26;;;;;;;12.70;9.73;;;;;;;;;;4969526;28;20361;-69
2023/02/17 03:35:51;;;;;;;11.80;8.60;;;;;;;;;;4983777;28;20039;-65
2023/02/17 03:38:16;;;;;;;12.27;9.23;;;;;;;;;;4957858;28;20050;-65
2023/02/17 03:40:41;;;;;;;11.40;8.80;;;;;;;;;;4967837;28;20286;-67
2023/02/17 03:43:07;;;;;;;12.77;9.57;;;;;;;;;;4968806;28;20692;-68
2023/02/17 03:45:34;;;;;;;12.77;10.00;;;;;;;;;;4968343;28;20408;-66
2023/02/17 03:47:59;;;;;;;12.30;9.18;;;;;;;;;;4967920;28;20282;-67
2023/02/17 03:50:24;;;;;;;12.77;9.70;;;;;;;;;;4983780;28;20086;-68
2023/02/17 03:52:50;;;;;;;12.87;9.33;;;;;;;;;;4968982;28;20274;-69
2023/02/17 03:55:15;;;;;;;11.93;9.07;;;;;;;;;;4982869;28;20270;-65
2023/02/17 03:57:40;;;;;;;13.02;9.57;;;;;;;;;;4982948;28;20891;-69
2023/02/17 04:00:06;;;;;;;11.80;8.97;;;;;;;;;;4968972;28;20134;-68
2023/02/17 04:02:31;;;;;;;11.85;8.82;;;;;;;;;;4966840;28;20357;-65
2023/02/17 04:04:56;;;;;;;11.53;8.93;;;;;;;;;;4963766;28;20110;-68
2023/02/17 04:07:22;;;;;;;12.37;8.87;;;;;;;;;;4960235;28;20282;-68
2023/02/17 04:09:47;;;;;;;11.80;9.17;;;;;;;;;;4965138;28;20054;-65
2023/02/17 04:12:12;;;;;;;11.80;9.30;;;;;;;;;;4987248;28;20269;-65
2023/02/17 04:14:37;;;;;;;11.20;8.47;;;;;;;;;;4987289;28;20089;-68
2023/02/17 04:17:03;;;;;;;11.87;8.90;;;;;;;;;;4987064;28;20387;-68
2023/02/17 04:19:28;;;;;;;12.00;9.20;;;;;;;;;;4982745;28;20281;-66
2023/02/17 04:21:53;;;;;;;11.57;9.00;;;;;;;;;;4985682;28;20266;-65
2023/02/17 04:24:18;;;;;;;12.43;8.97;;;;;;;;;;4985937;28;20301;-68
2023/02/17 04:26:43;;;;;;;11.10;8.80;;;;;;;;;;4986741;28;20820;-62
2023/02/17 04:29:09;;;;;;;11.07;8.33;;;;;;;;;;4962849;28;20670;-67
2023/02/17 04:31:34;;;;;;;11.20;8.83;;;;;;;;;;4970558;28;20352;-68
2023/02/17 04:33:59;;;;;;;11.63;8.00;;;;;;;;;;4988488;28;20289;-69
2023/02/17 04:36:24;;;;;;;12.27;9.73;;;;;;;;;;4987475;28;20041;-64
2023/02/17 04:38:50;;;;;;;11.67;8.60;;;;;;;;;;4986712;28;20938;-67
2023/02/17 04:41:15;;;;;;;11.07;8.50;;;;;;;;;;4968528;28;20304;-66
2023/02/17 04:43:40;;;;;;;12.53;8.67;;;;;;;;;;4986016;28;20269;-65
2023/02/17 04:46:05;;;;;;;11.52;9.05;;;;;;;;;;4968118;28;20050;-66
2023/02/17 04:48:31;;;;;;;11.33;8.33;;;;;;;;;;4969149;28;20034;-67
2023/02/17 04:50:56;;;;;;;10.87;8.27;;;;;;;;;;4985436;28;20313;-67
2023/02/17 04:53:21;;;;;;;10.67;8.40;;;;;;;;;;4984769;28;20304;-66
2023/02/17 04:55:47;;;;;;;11.45;8.68;;;;;;;;;;4969844;28;20277;-65
2023/02/17 04:58:13;;;;;;;10.45;8.55;;;;;;;;;;4975434;28;20434;-67
2023/02/17 05:00:38;;;;;;;10.63;8.30;;;;;;;;;;4978881;28;20042;-69
2023/02/17 05:03:03;;;;;;;11.73;8.63;;;;;;;;;;4989853;28;20711;-62
2023/02/17 05:05:28;;;;;;;12.07;8.63;;;;;;;;;;4991752;28;20282;-69
2023/02/17 05:07:54;;;;;;;10.93;8.98;;;;;;;;;;4985466;28;20072;-69
2023/02/17 05:10:19;;;;;;;9.87;8.20;;;;;;;;;;4950500;28;20049;-68
2023/02/17 05:12:44;;;;;;;12.05;8.60;;;;;;;;;;4967258;28;20726;-64
2023/02/17 05:15:09;;;;;;;11.00;8.17;;;;;;;;;;4987130;28;20482;-65
2023/02/17 05:17:35;;;;;;;11.30;8.70;;;;;;;;;;4987465;28;20301;-65
2023/02/17 05:20:00;;;;;;;11.93;8.60;;;;;;;;;;4988469;28;20360;-67
2023/02/17 05:22:25;;;;;;;9.90;8.18;;;;;;;;;;4987737;28;20282;-65
2023/02/17 05:24:50;;;;;;;10.53;8.23;;;;;;;;;;4985956;28;20050;-67
2023/02/17 05:27:16;;;;;;;10.07;8.10;;;;;;;;;;4984876;28;20290;-67
2023/02/17 05:29:41;;;;;;;10.33;8.33;;;;;;;;;;4988938;28;20317;-68
2023/02/17 05:32:06;;;;;;;11.05;8.27;;;;;;;;;;4990497;28;20549;-66
2023/02/17 05:34:31;;;;;;;10.27;8.00;;;;;;;;;;4990500;28;20070;-65
2023/02/17 05:36:57;;;;;;;10.50;8.23;;;;;;;;;;4986642;28;20038;-67
2023/02/17 05:39:22;;;;;;;10.03;7.80;;;;;;;;;;4987184;28;20855;-67
2023/02/17 05:41:47;;;;;;;11.00;8.40;;;;;;;;;;4988584;28;20397;-64
2023/02/17 05:44:12;;;;;;;10.67;8.17;;;;;;;;;;4989975;28;20285;-64
2023/02/17 05:46:38;;;;;;;10.90;8.33;;;;;;;;;;4988800;28;20785;-65
2023/02/17 05:49:03;;;;;;;10.07;7.75;;;;;;;;;;4990303;28;20281;-69
2023/02/17 05:51:28;;;;;;;10.40;8.00;;;;;;;;;;4990706;28;20118;-66
2023/02/17 05:53:53;;;;;;;11.90;8.27;;;;;;;;;;4990477;28;20058;-72
2023/02/17 05:56:18;;;;;;;10.23;8.33;;;;;;;;;;4975915;28;20770;-70
2023/02/17 05:58:44;;;;;;;11.20;8.20;;;;;;;;;;4974764;28;20686;-71
2023/02/17 06:01:09;;;;;;;10.60;7.93;;;;;;;;;;4991524;28;20034;-76
2023/02/17 06:03:34;;;;;;;10.30;7.88;;;;;;;;;;4973799;28;20270;-71
2023/02/17 06:06:00;;;;;;;11.07;8.52;;;;;;;;;;4988730;28;20093;-72
2023/02/17 06:08:25;;;;;;;10.25;7.90;;;;;;;;;;4987126;28;20034;-68
2023/02/17 06:10:51;;;;;;;9.03;7.17;;;;;;;;;;4970314;28;20050;-71
2023/02/17 06:13:16;;;;;;;9.25;7.55;;;;;;;;;;4989393;28;20323;-68
2023/02/17 06:15:42;;;;;;;10.85;8.55;;;;;;;;;;4987691;28;20117;-68
2023/02/17 06:18:07;;;;;;;10.43;7.47;;;;;;;;;;4989335;28;20070;-67
2023/02/17 06:20:32;;;;;;;13.27;7.73;;;;;;;;;;4987088;28;20043;-67
2023/02/17 06:22:57;;;;;;;9.30;7.77;;;;;;;;;;4969594;28;20030;-67
2023/02/17 06:25:22;;;;;;;13.40;8.07;;;;;;;;;;4988527;28;20088;-69
2023/02/17 06:27:48;;;;;;;11.07;7.63;;;;;;;;;;4987129;28;20297;-66
2023/02/17 06:30:13;;;;;;;9.83;7.37;;;;;;;;;;4988645;28;20280;-68
2023/02/17 06:32:39;;;;;;;10.38;7.25;;;;;;;;;;4988432;28;20289;-68
2023/02/17 06:35:04;;;;;;;11.27;7.23;;;;;;;;;;4986904;28;20053;-67
2023/02/17 06:37:29;;;;;;;11.57;7.40;;;;;;;;;;4988385;28;20038;-68
2023/02/17 06:39:54;;;;;;;8.70;6.70;;;;;;;;;;4989254;28;20580;-68
2023/02/17 06:42:19;;;;;;;9.67;7.00;;;;;;;;;;4988872;28;20289;-66
2023/02/17 06:44:45;;;;;;;9.40;6.97;;;;;;;;;;4988730;28;20026;-67
2023/02/17 06:47:10;;;;;;;10.27;7.30;;;;;;;;;;4985481;28;20030;-63
2023/02/17 06:49:35;;;;;;;10.93;6.70;;;;;;;;;;4985989;28;20447;-65
2023/02/17 06:52:01;;;;;;;9.03;7.10;;;;;;;;;;4988912;28;20081;-69
2023/02/17 06:54:26;;;;;;;11.17;7.90;;;;;;;;;;4987312;28;20431;-70
2023/02/17 06:56:51;;;;;;;9.73;7.70;;;;;;;;;;4971013;28;20111;-66
2023/02/17 06:59:16;;;;;;;8.43;7.20;;;;;;;;;;4987510;28;20034;-66
2023/02/17 07:01:42;;;;;;;9.00;7.00;;;;;;;;;;4989427;28;20270;-72
2023/02/17 07:04:07;;;;;;;9.03;7.10;;;;;;;;;;4989192;28;20289;-68
2023/02/17 07:06:32;;;;;;;9.07;7.47;;;;;;;;;;4968954;28;20944;-67
2023/02/17 07:08:57;;;;;;;9.67;7.27;;;;;;;;;;4986517;28;20487;-65
2023/02/17 07:11:22;;;;;;;8.60;6.87;;;;;;;;;;4984664;28;20305;-68
2023/02/17 07:13:48;;;;;;;9.18;7.30;;;;;;;;;;4984204;28;20046;-69
2023/02/17 07:16:13;;;;;;;11.27;7.50;;;;;;;;;;4987066;28;20038;-70
2023/02/17 07:18:38;;;;;;;9.60;6.80;;;;;;;;;;4986832;28;20030;-63
2023/02/17 07:21:04;;;;;;;10.63;7.15;;;;;;;;;;4987455;28;20062;-64
2023/02/17 07:23:29;;;;;;;9.75;7.25;;;;;;;;;;4973425;28;20553;-66
2023/02/17 07:25:55;;;;;;;9.23;6.93;;;;;;;;;;4982295;28;20030;-69
2023/02/17 07:28:20;;;;;;;9.13;6.67;;;;;;;;;;4983389;28;20192;-68
2023/02/17 07:30:45;;;;;;;10.80;7.60;;;;;;;;;;4969152;28;20285;-67
2023/02/17 07:33:10;;;;;;;9.67;7.47;;;;;;;;;;4985315;28;20317;-67
2023/02/17 07:35:39;;;;;;;8.27;6.77;;;;;;;;;;4965574;28;20340;-65
2023/02/17 07:38:04;;;;;;;9.48;6.95;;;;;;;;;;4968500;28;20035;-67
2023/02/17 07:40:30;;;;;;;9.63;6.90;;;;;;;;;;4968856;28;20038;-66
2023/02/17 07:42:55;;;;;;;9.10;6.70;;;;;;;;;;4987688;28;20285;-67
2023/02/17 07:45:20;;;;;;;9.48;6.72;;;;;;;;;;4985326;28;20030;-68
2023/02/17 07:47:46;;;;;;;8.10;6.47;;;;;;;;;;4983731;28;20113;-68
2023/02/17 07:50:11;;;;;;;9.13;6.97;;;;;;;;;;4986007;28;20121;-67
2023/02/17 07:52:36;;;;;;;9.30;7.33;;;;;;;;;;4986720;28;20481;-66
2023/02/17 07:55:01;;;;;;;8.93;6.45;;;;;;;;;;4986253;28;20062;-66
2023/02/17 07:57:27;;;;;;;8.87;7.03;;;;;;;;;;4980596;28;20491;-66
2023/02/17 07:59:52;;;;;;;9.23;7.03;;;;;;;;;;4983539;28;20561;-66
2023/02/17 08:02:17;;;;;;;9.60;7.27;;;;;;;;;;4986561;28;20317;-67
2023/02/17 08:04:42;;;;;;;9.95;6.90;;;;;;;;;;4986067;28;20057;-68
2023/02/17 08:07:08;;;;;;;8.48;6.85;;;;;;;;;;4980714;28;20089;-64
2023/02/17 08:15:02;;;;;;;9.77;7.03;;;;;;;;;;4980154;28;20062;-64
2023/02/17 08:17:27;;;;;;;8.63;6.80;;;;;;;;;;4985326;28;20035;-68
2023/02/17 08:19:53;;;;;;;8.95;7.10;;;;;;;;;;4985223;28;20518;-67
2023/02/17 08:22:18;;;;;;;9.63;7.38;;;;;;;;;;4986250;28;20070;-68
2023/02/17 08:24:44;;;;;;;8.13;6.67;;;;;;;;;;4986395;28;20044;-67
2023/02/17 08:27:09;;;;;;;10.40;7.30;;;;;;;;;;4966197;28;20391;-65
2023/02/17 08:29:34;;;;;;;8.90;6.77;;;;;;;;;;4970631;28;20027;-68
2023/02/17 08:31:59;;;;;;;8.40;6.87;;;;;;;;;;4985163;28;20131;-66
2023/02/17 08:34:25;;;;;;;10.03;6.63;;;;;;;;;;4967726;28;20309;-64
2023/02/17 08:36:50;;;;;;;9.05;7.45;;;;;;;;;;4986477;28;20296;-67
2023/02/17 08:39:16;;;;;;;9.03;7.07;;;;;;;;;;4988231;28;20259;-64
2023/02/17 08:41:41;;;;;;;9.32;6.65;;;;;;;;;;4985819;28;20289;-68
2023/02/17 08:44:08;;;;;;;11.07;7.30;;;;;;;;;;4986723;28;20524;-68
2023/02/17 08:46:33;;;;;;;10.00;7.20;;;;;;;;;;4972527;28;20030;-67
2023/02/17 08:48:58;;;;;;;9.65;7.18;;;;;;;;;;4973208;28;20038;-67
2023/02/17 08:51:25;;;;;;;10.63;7.53;;;;;;;;;;4990604;28;20105;-65
2023/02/17 08:53:53;;;;;;;8.68;6.85;;;;;;;;;;4986742;28;20142;-66
2023/02/17 08:56:19;;;;;;;9.20;7.03;;;;;;;;;;4985368;28;20042;-66
2023/02/17 08:58:44;;;;;;;9.43;7.60;;;;;;;;;;4972943;28;20093;-68
2023/02/17 09:01:10;;;;;;;9.17;7.17;;;;;;;;;;4973297;28;20529;-67
2023/02/17 09:03:36;;;;;;;9.65;7.07;;;;;;;;;;4990527;28;20277;-64
2023/02/17 09:06:01;;;;;;;11.20;7.80;;;;;;;;;;4973421;28;20094;-63
2023/02/17 09:08:27;;;;;;;9.50;7.32;;;;;;;;;;4989744;28;20160;-66
2023/02/17 09:10:52;;;;;;;9.83;7.20;;;;;;;;;;4990314;28;20057;-65
2023/02/17 09:13:17;;;;;;;9.00;7.17;;;;;;;;;;4991224;28;20026;-67
2023/02/17 09:15:42;;;;;;;9.60;7.47;;;;;;;;;;4990381;28;20295;-66
2023/02/17 09:18:08;;;;;;;9.27;7.20;;;;;;;;;;4971510;28;20157;-67
2023/02/17 09:20:33;;;;;;;9.57;7.20;;;;;;;;;;4982477;28;20034;-68
2023/02/17 09:22:58;;;;;;;9.53;7.23;;;;;;;;;;4989787;28;20590;-67
2023/02/17 09:25:23;;;;;;;9.67;7.43;;;;;;;;;;4999176;28;20268;-68
2023/02/17 09:27:49;;;;;;;9.43;7.05;;;;;;;;;;4975890;28;20040;-67
2023/02/17 09:30:14;;;;;;;8.98;7.70;;;;;;;;;;4990426;28;20073;-67
2023/02/17 09:32:40;;;;;;;9.63;7.03;;;;;;;;;;4989378;28;21114;-65
2023/02/17 09:35:05;;;;;;;8.63;6.93;;;;;;;;;;4990456;28;20092;-65
2023/02/17 09:37:30;;;;;;;8.45;6.70;;;;;;;;;;4989557;28;20062;-66
2023/02/17 09:39:56;;;;;;;10.03;7.67;;;;;;;;;;4989689;28;20471;-65
2023/02/17 09:42:22;;;;;;;7.70;6.40;;;;;;;;;;4987916;28;20262;-67
2023/02/17 09:44:48;;;;;;;8.55;6.60;;;;;;;;;;4972627;28;20459;-68
2023/02/17 09:47:15;;;;;;;9.10;6.55;;;;;;;;;;4971867;28;20466;-68
2023/02/17 09:49:44;;;;;;;9.38;6.78;;;;;;;;;;4989045;28;20105;-66
2023/02/17 09:52:30;;;;;;;10.18;7.13;;;;;;;;;;4989736;28;20039;-67
2023/02/17 09:55:03;;;;;;;9.48;7.10;;;;;;;;;;4981704;28;20049;-63
2023/02/17 09:57:30;;;;;;;9.15;6.53;;;;;;;;;;4988247;28;20034;-65
2023/02/17 10:00:01;;;;;;;8.50;6.70;;;;;;;;;;4977402;28;20039;-63
2023/02/17 10:02:30;;;;;;;9.50;6.90;;;;;;;;;;4987083;28;20263;-68
2023/02/17 10:04:55;;;;;;;8.68;6.55;;;;;;;;;;4991395;28;20039;-65
2023/02/17 10:07:23;;;;;;;8.60;6.70;;;;;;;;;;4969658;28;20092;-69
2023/02/17 10:09:49;;;;;;;7.78;6.32;;;;;;;;;;4985780;28;20026;-63
2023/02/17 10:12:16;;;;;;;8.35;5.90;;;;;;;;;;4998592;28;20089;-69
2023/02/17 10:14:47;;;;;;;8.75;6.70;;;;;;;;;;4989591;28;20035;-67
2023/02/17 10:17:15;;;;;;;7.35;6.18;;;;;;;;;;4973410;28;20584;-68
2023/02/17 10:19:46;;;;;;;8.90;6.90;;;;;;;;;;4989133;28;20034;-65
2023/02/17 10:22:17;;;;;;;7.82;6.10;;;;;;;;;;4989385;28;20026;-67
2023/02/17 10:24:43;;;;;;;8.43;6.47;;;;;;;;;;4960988;28;20046;-66
2023/02/17 10:27:08;;;;;;;7.70;6.27;;;;;;;;;;4971678;28;20034;-66
2023/02/17 10:29:40;;;;;;;8.05;6.47;;;;;;;;;;4989605;28;20150;-68
2023/02/17 10:32:05;;;;;;;8.68;5.90;;;;;;;;;;4985549;28;20510;-67
2023/02/17 10:34:34;;;;;;;8.57;6.63;;;;;;;;;;4988455;28;20049;-67
2023/02/17 10:37:00;;;;;;;8.73;6.38;;;;;;;;;;4989115;28;20117;-65
2023/02/17 10:39:40;;;;;;;7.85;6.28;;;;;;;;;;4971754;28;20205;-65
2023/02/17 10:42:05;;;;;;;8.25;6.43;;;;;;;;;;4987117;28;20046;-63
2023/02/17 10:44:32;;;;;;;8.33;5.73;;;;;;;;;;4988469;28;20117;-67
2023/02/17 10:46:57;;;;;;;7.85;6.07;;;;;;;;;;4986714;28;20281;-63
2023/02/17 10:49:28;;;;;;;8.20;6.07;;;;;;;;;;4986982;28;20041;-64
2023/02/17 10:51:53;;;;;;;7.60;5.68;;;;;;;;;;4986597;28;20034;-64
2023/02/17 10:54:28;;;;;;;8.18;6.20;;;;;;;;;;4985965;28;20608;-64
2023/02/17 10:56:53;;;;;;;7.40;5.90;;;;;;;;;;4987410;28;20034;-62
2023/02/17 10:59:23;;;;;;;8.10;6.20;;;;;;;;;;4984806;28;20577;-64
2023/02/17 11:01:48;;;;;;;7.90;6.07;;;;;;;;;;4985897;28;20435;-65
2023/02/17 11:04:13;;;;;;;7.07;5.80;;;;;;;;;;4986223;28;20065;-62
2023/02/17 11:06:43;;;;;;;7.70;6.20;;;;;;;;;;4985249;28;20289;-65
2023/02/17 11:09:19;;;;;;;7.35;5.95;;;;;;;;;;4986402;28;20038;-65
2023/02/17 11:11:52;;;;;;;7.72;5.75;;;;;;;;;;4985054;28;20050;-64
2023/02/17 11:14:19;;;;;;;7.50;6.20;;;;;;;;;;4985704;28;20045;-66
2023/02/17 11:16:46;;;;;;;7.30;5.75;;;;;;;;;;4987766;28;20016;-62
2023/02/17 11:19:20;;;;;;;6.95;5.75;;;;;;;;;;4969616;28;20034;-68
2023/02/17 11:21:45;;;;;;;7.97;5.75;;;;;;;;;;4986053;28;20042;-67
2023/02/17 11:24:10;;;;;;;7.95;6.25;;;;;;;;;;4984483;28;20027;-66
2023/02/17 11:26:36;;;;;;;7.20;5.30;;;;;;;;;;4987132;28;20030;-63
2023/02/17 11:29:07;;;;;;;7.32;5.68;;;;;;;;;;4985331;28;20288;-66
2023/02/17 11:31:32;;;;;;;7.60;5.68;;;;;;;;;;4986038;28;20034;-66
2023/02/17 11:33:57;;;;;;;6.60;5.90;;;;;;;;;;4986264;28;20041;-66
2023/02/17 11:36:24;;;;;;;6.80;5.53;;;;;;;;;;4987483;28;20034;-65
2023/02/17 11:38:49;;;;;;;6.50;5.32;;;;;;;;;;4988249;28;20042;-63
2023/02/17 11:41:15;;;;;;;7.00;5.38;;;;;;;;;;4987613;28;20053;-64
2023/02/17 11:43:49;;;;;;;6.72;5.45;;;;;;;;;;4987070;28;20546;-65
2023/02/17 11:46:14;;;;;;;6.50;5.10;;;;;;;;;;4986050;28;20030;-64
2023/02/17 11:48:40;;;;;;;6.50;5.15;;;;;;;;;;4987314;28;20077;-66
2023/02/17 11:51:09;;;;;;;7.60;5.57;;;;;;;;;;4986823;28;20479;-65
2023/02/17 11:53:37;;;;;;;5.93;4.80;;;;;;;;;;4968926;28;20046;-66
2023/02/17 11:56:05;;;;;;;6.43;5.10;;;;;;;;;;4985699;28;20548;-66
2023/02/17 11:58:30;;;;;;;6.22;5.00;;;;;;;;;;4985723;28;20435;-67
2023/02/17 12:01:04;;;;;;;6.50;5.07;;;;;;;;;;4983460;28;20050;-68
2023/02/17 12:03:35;;;;;;;7.18;5.20;;;;;;;;;;4986954;28;20031;-65
2023/02/17 12:06:07;;;;;;;7.57;5.50;;;;;;;;;;4978644;28;20046;-67
2023/02/17 12:08:37;;;;;;;6.38;5.18;;;;;;;;;;4984531;28;20031;-69
2023/02/17 12:11:21;;;;;;;8.18;5.50;;;;;;;;;;4981335;28;20054;-66
2023/02/17 12:13:55;;;;;;;6.90;5.07;;;;;;;;;;4980906;28;20526;-64
2023/02/17 12:16:29;;;;;;;7.15;5.32;;;;;;;;;;4987134;28;20435;-66
2023/02/17 12:18:58;;;;;;;8.27;6.38;;;;;;;;;;4986897;28;20406;-64
2023/02/17 12:21:28;;;;;;;6.43;5.47;;;;;;;;;;4985970;28;20040;-67
2023/02/17 12:24:11;;;;;;;7.88;6.07;;;;;;;;;;4984185;28;20293;-67
2023/02/17 12:26:47;;;;;;;7.30;5.60;;;;;;;;;;4987073;28;20072;-66
2023/02/17 12:29:16;;;;;;;7.13;5.60;;;;;;;;;;4968962;28;20029;-67
2023/02/17 12:31:47;;;;;;;7.07;5.40;;;;;;;;;;4968269;28;20101;-64
2023/02/17 12:34:24;;;;;;;7.03;5.40;;;;;;;;;;4983094;28;20069;-66
2023/02/17 12:36:50;;;;;;;6.05;4.85;;;;;;;;;;4984967;28;20073;-65
2023/02/17 12:39:16;;;;;;;7.35;5.28;;;;;;;;;;4985361;28;20042;-66
2023/02/17 12:41:50;;;;;;;7.40;5.28;;;;;;;;;;4969166;28;20061;-65
2023/02/17 12:44:22;;;;;;;6.85;5.15;;;;;;;;;;4969664;28;20077;-65
2023/02/17 12:46:49;;;;;;;6.65;5.03;;;;;;;;;;4969515;28;20053;-65
2023/02/17 12:49:22;;;;;;;6.88;4.85;;;;;;;;;;4983732;28;20054;-67
2023/02/17 12:51:57;;;;;;;7.45;5.43;;;;;;;;;;4968514;28;20050;-68
2023/02/17 12:54:31;;;;;;;6.07;4.72;;;;;;;;;;4963255;28;20081;-66
2023/02/17 12:57:08;;;;;;;8.07;5.50;;;;;;;;;;4986598;28;20164;-65
2023/02/17 12:59:35;;;;;;;6.97;4.88;;;;;;;;;;4987668;28;20139;-65
2023/02/17 13:02:00;;;;;;;6.07;4.85;;;;;;;;;;4963569;28;20065;-67
2023/02/17 13:04:26;;;;;;;6.93;5.30;;;;;;;;;;4987429;28;20097;-65
2023/02/17 13:06:53;;;;;;;6.10;4.72;;;;;;;;;;4985891;28;20034;-69
2023/02/17 13:09:27;;;;;;;6.50;5.07;;;;;;;;;;4986257;28;20557;-67
2023/02/17 13:11:52;;;;;;;5.85;4.75;;;;;;;;;;4969570;28;20057;-68
2023/02/17 13:14:25;;;;;;;6.07;5.17;;;;;;;;;;4987327;28;20454;-67
2023/02/17 13:16:50;;;;;;;6.55;4.55;;;;;;;;;;4969698;28;20036;-67
2023/02/17 13:19:15;;;;;;;7.10;5.07;;;;;;;;;;4986480;28;20121;-67
2023/02/17 13:22:07;;;;;;;6.30;4.60;;;;;;;;;;4969435;28;20645;-66
2023/02/17 13:24:33;;;;;;;5.88;4.75;;;;;;;;;;4975492;28;20034;-66
2023/02/17 13:27:11;;;;;;;6.85;4.75;;;;;;;;;;4990208;28;20120;-68
2023/02/17 13:29:36;;;;;;;6.13;4.80;;;;;;;;;;4989985;28;20037;-65
2023/02/17 13:32:05;;;;;;;6.80;4.53;;;;;;;;;;4989448;28;20113;-65
2023/02/17 13:34:34;;;;;;;5.93;4.77;;;;;;;;;;4989338;28;20030;-68
2023/02/17 13:37:01;;;;;;;6.13;4.40;;;;;;;;;;4990769;28;20022;-66
2023/02/17 13:39:26;;;;;;;5.88;4.72;;;;;;;;;;4972991;28;20461;-67
2023/02/17 13:41:52;;;;;;;6.57;4.75;;;;;;;;;;4980806;28;20039;-67
2023/02/17 13:44:23;;;;;;;6.20;4.43;;;;;;;;;;4984738;28;20377;-67
2023/02/17 13:46:48;;;;;;;6.63;4.70;;;;;;;;;;4990247;28;20026;-67
2023/02/17 13:49:18;;;;;;;5.13;4.17;;;;;;;;;;4982959;28;20034;-65
2023/02/17 13:51:43;;;;;;;6.47;4.55;;;;;;;;;;4969141;28;20305;-67
2023/02/17 13:54:11;;;;;;;6.10;4.40;;;;;;;;;;4988964;28;20058;-68
2023/02/17 13:56:36;;;;;;;6.40;4.45;;;;;;;;;;4978337;28;22328;-65
2023/02/17 13:59:17;;;;;;;6.17;4.60;;;;;;;;;;4964480;28;20104;-67
2023/02/17 14:01:42;;;;;;;6.13;4.15;;;;;;;;;;4980592;28;20120;-67
2023/02/17 14:04:21;;;;;;;6.85;4.25;;;;;;;;;;4971583;28;20514;-65
2023/02/17 14:06:48;;;;;;;6.03;4.40;;;;;;;;;;4975330;28;20057;-65
2023/02/17 14:09:18;;;;;;;5.43;4.35;;;;;;;;;;4983270;28;20047;-68
2023/02/17 14:11:44;;;;;;;4.95;3.75;;;;;;;;;;4982858;28;20038;-68
2023/02/17 14:14:09;;;;;;;5.95;4.32;;;;;;;;;;4975294;28;20436;-66
2023/02/17 14:16:36;;;;;;;4.80;3.95;;;;;;;;;;4972064;28;20030;-66
2023/02/17 14:19:08;;;;;;;4.95;3.85;;;;;;;;;;4985524;28;20035;-67
2023/02/17 14:21:34;;;;;;;4.50;3.58;;;;;;;;;;4989596;28;20530;-66
2023/02/17 14:23:59;;;;;;;5.45;3.90;;;;;;;;;;4987805;28;20035;-65
2023/02/17 14:26:26;;;;;;;5.82;3.95;;;;;;;;;;4999446;28;20022;-67
2023/02/17 14:28:52;;;;;;;5.20;4.05;;;;;;;;;;4993862;28;20121;-67
2023/02/17 14:31:17;;;;;;;5.18;3.67;;;;;;;;;;4972264;28;20061;-68
2023/02/17 14:33:50;;;;;;;4.78;3.53;;;;;;;;;;4988777;28;20085;-69
2023/02/17 14:36:15;;;;;;;5.35;3.58;;;;;;;;;;4989168;28;20034;-66
2023/02/17 14:38:40;;;;;;;5.57;3.57;;;;;;;;;;4987460;28;20165;-67
2023/02/17 14:41:07;;;;;;;4.90;3.38;;;;;;;;;;4971382;28;20130;-66